Time;durP1;ratioP1;P1;durP2;ratioP2;P2;SDS_P1;SDS_P2;PMS_P1;PMS_P2;Temp;Humidity;BMP_temperature;BMP_pressure;BME280_temperature;BME280_humidity;BME280_pressure;Samples;Min_cycle;Max_cycle;Signal;HPM_P1;HPM_P2
2023/03/23 00:01:22;;;;;;;15.43;6.97;;;;;;;10.83;100.00;100055.78;4906022;29;20398;-87
2023/03/23 00:03:52;;;;;;;18.95;8.77;;;;;;;10.87;100.00;100057.38;4909266;29;20024;-87
2023/03/23 00:06:18;;;;;;;15.30;7.72;;;;;;;10.75;100.00;100030.59;4907513;29;20047;-87
2023/03/23 00:08:47;;;;;;;16.08;7.90;;;;;;;10.84;100.00;100041.38;4894272;29;20031;-86
2023/03/23 00:11:18;;;;;;;16.60;7.40;;;;;;;10.84;100.00;100051.78;4913090;29;20085;-86
2023/03/23 00:13:45;;;;;;;13.52;7.00;;;;;;;10.82;100.00;100031.78;4906887;29;20043;-86
2023/03/23 00:16:18;;;;;;;16.60;7.25;;;;;;;10.92;100.00;100031.78;4906915;29;20035;-86
2023/03/23 00:18:52;;;;;;;9.52;6.10;;;;;;;10.97;100.00;100022.97;4893554;29;20208;-86
2023/03/23 00:21:18;;;;;;;12.02;5.90;;;;;;;11.01;100.00;100030.59;4893508;29;20573;-88
2023/03/23 00:23:44;;;;;;;16.27;6.68;;;;;;;10.99;100.00;100003.78;4910693;29;20119;-88
2023/03/23 00:26:10;;;;;;;9.68;5.82;;;;;;;10.95;100.00;99986.16;4895619;29;20051;-89
2023/03/23 00:28:36;;;;;;;8.98;5.32;;;;;;;10.93;100.00;99987.78;4910551;29;20036;-88
2023/03/23 00:31:05;;;;;;;11.82;7.38;;;;;;;10.94;100.00;99998.59;4886581;29;20565;-87
2023/03/23 00:33:37;;;;;;;9.25;5.43;;;;;;;10.97;100.00;99988.56;4887002;29;20040;-88
2023/03/23 00:36:13;;;;;;;10.25;5.15;;;;;;;10.98;100.00;100012.56;4908815;29;20421;-88
2023/03/23 00:38:40;;;;;;;11.93;5.13;;;;;;;10.89;100.00;100023.38;4905260;29;20063;-87
2023/03/23 00:41:06;;;;;;;12.55;5.97;;;;;;;10.88;100.00;100022.59;4890764;29;20035;-88
2023/03/23 00:43:35;;;;;;;9.77;5.93;;;;;;;10.84;100.00;100030.19;4893719;29;20031;-88
2023/03/23 00:46:02;;;;;;;13.18;5.55;;;;;;;10.76;100.00;100034.19;4908660;29;20501;-87
2023/03/23 00:48:28;;;;;;;9.27;6.30;;;;;;;10.91;100.00;100040.59;4909342;29;20621;-88
2023/03/23 00:50:55;;;;;;;8.30;5.35;;;;;;;10.85;100.00;100026.16;4895638;29;20036;-88
2023/03/23 00:53:20;;;;;;;6.95;4.55;;;;;;;10.97;100.00;100039.78;4894527;29;20036;-88
2023/03/23 00:55:47;;;;;;;10.35;5.20;;;;;;;10.99;100.00;100028.97;4891869;29;20035;-88
2023/03/23 00:58:14;;;;;;;10.18;4.90;;;;;;;10.94;100.00;100020.16;4911411;29;20044;-87
2023/03/23 01:00:40;;;;;;;10.18;4.95;;;;;;;11.04;100.00;100029.75;4913151;29;21683;-88
2023/03/23 01:03:06;;;;;;;8.48;4.88;;;;;;;10.92;100.00;100001.00;4914936;29;20043;-88
2023/03/23 01:05:36;;;;;;;11.70;5.03;;;;;;;11.04;100.00;100019.34;4895177;29;20062;-87
2023/03/23 01:08:02;;;;;;;9.13;4.40;;;;;;;11.00;100.00;100012.97;4893946;29;20031;-87
2023/03/23 01:10:28;;;;;;;7.38;4.38;;;;;;;10.90;100.00;99999.78;4911457;29;20035;-89
2023/03/23 01:12:54;;;;;;;13.07;6.57;;;;;;;11.02;100.00;100020.97;4908180;29;20108;-88
2023/03/23 01:15:21;;;;;;;6.10;4.45;;;;;;;10.92;100.00;100002.97;4891770;29;20082;-88
2023/03/23 01:17:46;;;;;;;9.48;4.47;;;;;;;10.89;100.00;99986.97;4905620;29;20040;-88
2023/03/23 01:20:15;;;;;;;14.82;5.15;;;;;;;10.93;100.00;99993.38;4893118;29;20028;-88
2023/03/23 01:22:41;;;;;;;13.50;5.43;;;;;;;10.92;100.00;99992.59;4905622;29;20094;-88
2023/03/23 01:25:09;;;;;;;9.85;4.68;;;;;;;10.88;100.00;99996.56;4910268;29;20027;-88
2023/03/23 01:27:34;;;;;;;8.52;5.72;;;;;;;10.88;100.00;99986.19;4891958;29;20126;-88
2023/03/23 01:30:00;;;;;;;11.50;5.55;;;;;;;10.86;100.00;99982.19;4894420;29;20078;-88
2023/03/23 01:32:26;;;;;;;8.98;4.55;;;;;;;10.84;100.00;99993.00;4893433;29;20432;-88
2023/03/23 01:34:51;;;;;;;7.28;4.38;;;;;;;10.86;100.00;99999.78;4891654;29;22161;-89
2023/03/23 01:37:17;;;;;;;8.05;4.60;;;;;;;10.86;100.00;100001.81;4909716;29;20031;-89
2023/03/23 01:39:43;;;;;;;7.68;4.20;;;;;;;10.90;100.00;99994.16;4881608;29;20062;-88
2023/03/23 01:42:09;;;;;;;11.10;5.45;;;;;;;10.85;100.00;99998.19;4914259;29;20043;-88
2023/03/23 01:44:35;;;;;;;14.43;5.82;;;;;;;10.89;100.00;99986.97;4906319;29;20394;-89
2023/03/23 01:47:00;;;;;;;11.55;5.47;;;;;;;10.80;100.00;99978.22;4908544;29;20035;-89
2023/03/23 01:49:40;;;;;;;12.63;4.43;;;;;;;10.83;100.00;99969.00;4888237;29;20072;-89
2023/03/23 01:52:09;;;;;;;10.50;4.70;;;;;;;10.85;100.00;99964.59;4888253;29;20091;-89
2023/03/23 01:54:38;;;;;;;6.47;4.13;;;;;;;10.83;100.00;99964.19;4884488;29;21682;-88
2023/03/23 01:57:11;;;;;;;7.03;3.83;;;;;;;10.80;100.00;99951.00;4888043;29;20043;-89
2023/03/23 01:59:37;;;;;;;12.90;4.65;;;;;;;10.82;100.00;99964.59;4890444;29;20175;-89
2023/03/23 02:02:04;;;;;;;11.18;4.82;;;;;;;10.85;100.00;99961.00;4890715;29;20162;-89
2023/03/23 02:04:31;;;;;;;7.40;3.63;;;;;;;10.85;100.00;99961.78;4894497;29;20036;-89
2023/03/23 02:06:57;;;;;;;8.10;4.40;;;;;;;10.83;100.00;99955.78;4904750;29;21087;-89
2023/03/23 02:09:25;;;;;;;13.30;4.93;;;;;;;10.86;100.00;99968.22;4889530;29;20343;-89
2023/03/23 02:11:52;;;;;;;8.50;4.28;;;;;;;10.81;100.00;99946.19;4910729;29;20027;-90
2023/03/23 02:14:18;;;;;;;9.32;4.28;;;;;;;10.82;100.00;99959.00;4896110;29;20032;-89
2023/03/23 02:16:52;;;;;;;5.22;3.70;;;;;;;10.78;100.00;99954.19;4903967;29;20043;-90
2023/03/23 02:20:06;;;;;;;8.43;3.95;;;;;;;10.91;100.00;99970.59;4905801;29;20066;-90
2023/03/23 02:22:58;;;;;;;9.43;3.60;;;;;;;10.86;100.00;99965.41;4910091;29;20099;-91
2023/03/23 02:26:02;;;;;;;6.82;2.95;;;;;;;10.86;100.00;99955.00;4910292;29;20605;-91
2023/03/23 02:28:54;;;;;;;6.72;3.38;;;;;;;10.86;100.00;99957.00;4909713;29;20027;-91
2023/03/23 02:31:41;;;;;;;8.73;4.43;;;;;;;10.87;100.00;99941.78;4891884;29;20032;-90
2023/03/23 02:34:15;;;;;;;6.07;3.58;;;;;;;10.87;100.00;99947.38;4908714;29;20399;-90
2023/03/23 02:36:55;;;;;;;7.40;3.35;;;;;;;10.85;100.00;99941.41;4909205;29;20058;-91
2023/03/23 02:39:45;;;;;;;6.00;3.38;;;;;;;10.85;100.00;99952.59;4904909;29;20647;-91
2023/03/23 02:42:14;;;;;;;6.18;4.35;;;;;;;10.88;100.00;99940.56;4904093;29;20027;-91
2023/03/23 02:44:44;;;;;;;8.65;4.15;;;;;;;10.83;100.00;99941.00;4895725;29;20050;-91
2023/03/23 02:47:16;;;;;;;6.03;3.47;;;;;;;10.83;100.00;99943.81;4908623;29;20601;-91
2023/03/23 02:49:44;;;;;;;4.55;2.83;;;;;;;10.85;100.00;99942.19;4888230;29;20711;-92
2023/03/23 02:52:18;;;;;;;9.73;3.92;;;;;;;10.88;100.00;99935.81;4892714;29;20506;-90
2023/03/23 02:54:47;;;;;;;5.00;2.92;;;;;;;10.84;100.00;99940.59;4903340;29;21533;-90
2023/03/23 02:57:13;;;;;;;9.82;3.55;;;;;;;10.85;100.00;99941.41;4909364;29;20036;-90
2023/03/23 02:59:39;;;;;;;6.57;3.40;;;;;;;10.81;100.00;99940.59;4907075;29;20512;-90
2023/03/23 03:02:17;;;;;;;14.00;3.92;;;;;;;10.78;100.00;99929.00;4906332;29;20050;-91
2023/03/23 03:04:54;;;;;;;7.20;3.63;;;;;;;10.78;100.00;99926.22;4890570;29;20475;-90
2023/03/23 03:07:40;;;;;;;10.75;3.97;;;;;;;10.77;100.00;99918.22;4895593;29;20074;-91
2023/03/23 03:10:22;;;;;;;6.85;3.25;;;;;;;10.80;100.00;99917.41;4907606;29;20032;-90
2023/03/23 03:13:29;;;;;;;6.15;3.55;;;;;;;10.80;100.00;99925.81;4905544;29;20031;-90
2023/03/23 03:16:01;;;;;;;7.07;4.15;;;;;;;10.88;100.00;99932.19;4869538;29;20035;-87
2023/03/23 03:18:44;;;;;;;9.10;3.78;;;;;;;10.81;100.00;99907.00;4887030;29;20792;-87
2023/03/23 03:21:12;;;;;;;;;;;;;;;10.86;100.00;99923.41;4879001;29;20042;-87
2023/03/23 03:23:41;;;;;;;9.02;4.32;;;;;;;10.88;100.00;99918.19;4903699;29;20390;-86
2023/03/23 03:26:09;;;;;;;7.32;4.43;;;;;;;10.89;100.00;99919.78;4902522;29;20086;-86
2023/03/23 03:28:35;;;;;;;7.32;3.83;;;;;;;10.92;100.00;99927.38;4908166;29;20047;-86
2023/03/23 03:31:04;;;;;;;10.25;4.88;;;;;;;10.93;100.00;99912.97;4908385;29;20513;-87
2023/03/23 03:33:31;;;;;;;5.65;4.07;;;;;;;10.90;100.00;99907.38;4903250;29;20493;-86
2023/03/23 03:36:00;;;;;;;7.57;3.60;;;;;;;10.91;100.00;99900.59;4888156;29;20035;-87
2023/03/23 03:38:26;;;;;;;9.45;4.78;;;;;;;11.02;100.00;99906.94;4904880;29;20043;-87
2023/03/23 03:40:54;;;;;;;7.85;4.05;;;;;;;10.97;100.00;99904.56;4905820;29;20039;-86
2023/03/23 03:43:19;;;;;;;10.48;4.95;;;;;;;10.96;100.00;99902.97;4885536;29;20123;-87
2023/03/23 03:45:45;;;;;;;10.40;5.32;;;;;;;11.03;100.00;99902.97;4905589;29;20039;-86
2023/03/23 03:48:11;;;;;;;8.07;3.90;;;;;;;11.05;100.00;99908.16;4886354;29;20044;-87
2023/03/23 03:50:36;;;;;;;7.72;4.85;;;;;;;11.03;100.00;99897.34;4907307;29;20545;-87
2023/03/23 03:53:02;;;;;;;8.95;4.68;;;;;;;11.03;100.00;99894.56;4892045;29;20399;-87
2023/03/23 03:55:28;;;;;;;7.28;4.30;;;;;;;10.99;100.00;99896.56;4880691;29;20469;-87
2023/03/23 03:57:55;;;;;;;7.15;4.35;;;;;;;11.07;100.00;99902.94;4912376;29;20027;-87
2023/03/23 04:00:20;;;;;;;9.85;4.53;;;;;;;11.03;100.00;99902.16;4890698;29;20051;-88
2023/03/23 04:02:50;;;;;;;10.27;4.40;;;;;;;11.01;100.00;99899.75;4891573;29;20458;-88
2023/03/23 04:05:16;;;;;;;8.20;5.05;;;;;;;11.04;100.00;99887.75;4906030;29;21173;-88
2023/03/23 04:07:42;;;;;;;10.88;5.25;;;;;;;11.02;100.00;99889.34;4911086;29;20040;-88
2023/03/23 04:10:09;;;;;;;7.25;4.57;;;;;;;11.04;100.00;99875.75;4910347;29;20474;-88
2023/03/23 04:12:35;;;;;;;9.43;4.47;;;;;;;11.04;100.00;99890.53;4896457;29;20036;-88
2023/03/23 04:15:02;;;;;;;8.70;4.90;;;;;;;10.95;100.00;99890.97;4907477;29;20393;-88
2023/03/23 04:17:27;;;;;;;12.27;4.90;;;;;;;11.04;100.00;99893.34;4908189;29;20736;-89
2023/03/23 04:19:56;;;;;;;6.65;4.13;;;;;;;11.05;100.00;99900.56;4909073;29;20478;-87
2023/03/23 04:22:24;;;;;;;7.68;4.72;;;;;;;10.97;100.00;99882.19;4894949;29;20038;-88
2023/03/23 04:24:51;;;;;;;7.85;4.25;;;;;;;11.02;100.00;99892.94;4893398;29;20044;-88
2023/03/23 04:27:17;;;;;;;10.35;4.95;;;;;;;11.00;100.00;99881.34;4892761;29;20106;-88
2023/03/23 04:29:48;;;;;;;8.60;4.43;;;;;;;11.02;100.00;99866.94;4891614;29;20031;-88
2023/03/23 04:32:14;;;;;;;10.27;5.10;;;;;;;11.07;100.00;99864.53;4886793;29;20418;-88
2023/03/23 04:34:40;;;;;;;6.10;3.58;;;;;;;11.14;100.00;99875.69;4906806;29;20451;-88
2023/03/23 04:37:05;;;;;;;9.30;4.40;;;;;;;11.19;100.00;99875.31;4893365;29;20028;-88
2023/03/23 04:39:33;;;;;;;9.35;4.88;;;;;;;11.18;100.00;99886.91;4902032;29;20042;-88
2023/03/23 04:42:00;;;;;;;7.95;4.32;;;;;;;11.15;100.00;99879.28;4902710;29;20037;-88
2023/03/23 04:44:27;;;;;;;8.32;4.30;;;;;;;11.10;100.00;99886.13;4909682;29;20027;-88
2023/03/23 04:46:53;;;;;;;9.20;4.07;;;;;;;11.12;100.00;99894.91;4889910;29;20040;-89
2023/03/23 04:49:21;;;;;;;5.32;3.67;;;;;;;11.13;100.00;99912.50;4897775;29;20487;-88
2023/03/23 04:51:48;;;;;;;7.75;4.15;;;;;;;11.02;100.00;99906.94;4892159;29;20453;-88
2023/03/23 04:54:14;;;;;;;11.73;3.28;;;;;;;10.97;100.00;99926.97;4888543;29;20028;-87
2023/03/23 04:56:41;;;;;;;8.18;3.47;;;;;;;10.83;100.00;99929.81;4899629;29;20078;-87
2023/03/23 04:59:06;;;;;;;8.77;3.42;;;;;;;10.70;100.00;99919.03;4886854;29;20130;-88
2023/03/23 05:01:33;;;;;;;6.13;2.92;;;;;;;10.66;100.00;99929.41;4891828;29;20489;-88
2023/03/23 05:04:00;;;;;;;7.50;3.00;;;;;;;10.62;100.00;99920.22;4907506;29;20552;-89
2023/03/23 05:06:25;;;;;;;4.85;3.03;;;;;;;10.42;100.00;99908.66;4893280;29;20046;-90
2023/03/23 05:08:51;;;;;;;5.18;2.53;;;;;;;10.53;100.00;99920.63;4909893;29;21737;-89
2023/03/23 05:11:16;;;;;;;8.43;2.72;;;;;;;10.41;100.00;99923.06;4906900;29;20146;-89
2023/03/23 05:13:43;;;;;;;5.25;2.22;;;;;;;10.41;100.00;99928.66;4889732;29;20486;-89
2023/03/23 05:16:09;;;;;;;4.80;2.75;;;;;;;10.35;100.00;99934.66;4889505;29;22047;-89
2023/03/23 05:18:35;;;;;;;11.32;2.45;;;;;;;10.30;100.00;99943.44;4888950;29;20099;-89
2023/03/23 05:21:02;;;;;;;5.90;2.60;;;;;;;10.23;100.00;99935.00;4903235;29;20797;-88
2023/03/23 05:23:30;;;;;;;8.25;2.70;;;;;;;10.17;100.00;99931.00;4895838;29;20423;-91
2023/03/23 05:26:00;;;;;;;4.82;2.03;;;;;;;10.18;100.00;99955.78;4890152;29;21579;-90
2023/03/23 05:28:26;;;;;;;5.15;2.35;;;;;;;9.97;100.00;99930.56;4895256;29;20042;-89
2023/03/23 05:30:52;;;;;;;4.63;1.88;;;;;;;10.15;100.00;99955.78;4890477;29;20035;-90
2023/03/23 05:33:17;;;;;;;3.65;2.50;;;;;;;10.16;100.00;99968.53;4906040;29;20032;-90
2023/03/23 05:35:42;;;;;;;5.13;2.60;;;;;;;10.12;100.00;99974.16;4903379;29;20034;-90
2023/03/23 05:38:08;;;;;;;6.47;2.53;;;;;;;10.12;100.00;99976.16;4904265;29;20090;-89
2023/03/23 05:40:33;;;;;;;6.88;2.92;;;;;;;10.10;100.00;99970.16;4910878;29;20028;-89
2023/03/23 05:42:58;;;;;;;7.70;2.53;;;;;;;10.07;100.00;99966.13;4913807;29;20086;-88
2023/03/23 05:45:26;;;;;;;6.88;3.47;;;;;;;10.02;100.00;99954.56;4914630;29;20042;-86
2023/03/23 05:47:51;;;;;;;6.22;2.63;;;;;;;10.11;100.00;99954.97;4917665;29;20041;-89
2023/03/23 05:50:17;;;;;;;7.88;3.65;;;;;;;10.04;100.00;99955.75;4917964;29;20425;-89
2023/03/23 05:52:43;;;;;;;12.90;3.75;;;;;;;10.08;100.00;99952.97;4902796;29;20028;-89
2023/03/23 05:55:09;;;;;;;8.93;3.20;;;;;;;10.14;100.00;99973.72;4914010;29;20079;-89
2023/03/23 05:57:34;;;;;;;7.40;3.72;;;;;;;10.00;100.00;99954.16;4917224;29;20075;-89
2023/03/23 06:00:06;;;;;;;9.40;3.30;;;;;;;10.16;100.00;99969.38;4921317;29;20032;-89
2023/03/23 06:02:31;;;;;;;9.30;3.40;;;;;;;10.15;100.00;99973.34;4908897;29;20151;-89
2023/03/23 06:04:57;;;;;;;14.07;4.68;;;;;;;10.08;100.00;99956.56;4910269;29;20127;-90
2023/03/23 06:07:24;;;;;;;9.20;3.85;;;;;;;10.18;100.00;99968.94;4908233;29;20178;-89
2023/03/23 06:09:50;;;;;;;17.50;3.80;;;;;;;10.12;100.00;99962.19;4924362;29;20027;-89
2023/03/23 06:12:19;;;;;;;11.98;3.33;;;;;;;10.16;100.00;99991.75;4914220;29;20024;-89
2023/03/23 06:14:46;;;;;;;14.45;3.90;;;;;;;10.16;100.00;99996.50;4914262;29;20504;-89
2023/03/23 06:17:11;;;;;;;13.70;4.95;;;;;;;10.02;100.00;99974.13;4912845;29;20479;-89
2023/03/23 06:19:37;;;;;;;11.82;3.45;;;;;;;10.11;100.00;100000.50;4923663;29;20670;-89
2023/03/23 06:22:02;;;;;;;9.80;4.03;;;;;;;10.04;100.00;99985.72;4905632;29;20114;-89
2023/03/23 06:24:28;;;;;;;16.77;4.50;;;;;;;10.13;100.00;100014.09;4905132;29;20039;-89
2023/03/23 06:26:53;;;;;;;15.52;4.18;;;;;;;10.16;100.00;100005.72;4907181;29;20027;-88
2023/03/23 06:29:19;;;;;;;9.25;3.10;;;;;;;10.18;100.00;100005.31;4903435;29;20071;-89
2023/03/23 06:31:48;;;;;;;15.38;5.90;;;;;;;10.23;100.00;100012.53;4915028;29;20546;-89
2023/03/23 06:34:14;;;;;;;10.75;3.45;;;;;;;10.18;100.00;100005.31;4907157;29;20024;-88
2023/03/23 06:36:40;;;;;;;12.63;4.45;;;;;;;10.28;100.00;100017.72;4902108;29;20113;-88
2023/03/23 06:39:06;;;;;;;10.20;4.43;;;;;;;10.33;100.00;100017.34;4924844;29;20039;-87
2023/03/23 06:41:32;;;;;;;9.65;3.20;;;;;;;10.32;100.00;100019.34;4906590;29;20031;-89
2023/03/23 06:43:59;;;;;;;6.22;3.00;;;;;;;10.40;100.00;100038.97;4926682;29;20035;-87
2023/03/23 06:46:24;;;;;;;9.25;2.80;;;;;;;10.30;100.00;100013.34;4907054;29;20042;-90
2023/03/23 06:48:50;;;;;;;6.70;2.70;;;;;;;10.40;100.00;100031.34;4921583;29;20047;-89
2023/03/23 06:51:17;;;;;;;7.95;3.05;;;;;;;10.38;100.00;100037.34;4909850;29;20033;-91
2023/03/23 06:53:42;;;;;;;9.30;3.55;;;;;;;10.36;100.00;100045.34;4928585;29;20043;-89
2023/03/23 06:56:08;;;;;;;9.52;3.40;;;;;;;10.34;100.00;100047.72;4903868;29;20043;-89
2023/03/23 06:58:34;;;;;;;6.90;2.95;;;;;;;10.34;100.00;100047.72;4907264;29;20253;-89
2023/03/23 07:01:00;;;;;;;13.10;3.40;;;;;;;10.31;100.00;100036.56;4891833;29;20031;-89
2023/03/23 07:03:27;;;;;;;12.68;2.92;;;;;;;10.21;100.00;100026.91;4925574;29;20023;-89
2023/03/23 07:05:53;;;;;;;8.70;2.90;;;;;;;10.60;100.00;100050.56;4916953;29;20125;-82
2023/03/23 07:08:18;;;;;;;14.15;3.63;;;;;;;10.36;100.00;100038.94;4910442;29;20109;-88
2023/03/23 07:10:44;;;;;;;16.35;4.40;;;;;;;10.97;100.00;100042.56;4910009;29;20039;-82
2023/03/23 07:13:10;;;;;;;15.10;4.07;;;;;;;10.92;100.00;100054.19;4904246;29;20039;-85
2023/03/23 07:15:35;;;;;;;13.57;3.75;;;;;;;10.66;100.00;100046.16;4933152;29;20059;-84
2023/03/23 07:18:01;;;;;;;13.35;4.72;;;;;;;10.63;100.00;100058.97;4921441;29;20035;-85
2023/03/23 07:20:26;;;;;;;11.23;4.07;;;;;;;10.54;100.00;100045.38;4906294;29;20031;-85
2023/03/23 07:22:53;;;;;;;11.95;6.20;;;;;;;10.47;100.00;100047.34;4934105;29;20031;-85
2023/03/23 07:25:19;;;;;;;16.27;4.43;;;;;;;10.51;100.00;100051.75;4938654;29;20457;-85
2023/03/23 07:27:45;;;;;;;12.27;4.00;;;;;;;10.50;100.00;100061.34;4936905;29;20118;-85
2023/03/23 07:30:12;;;;;;;9.70;4.30;;;;;;;10.50;100.00;100049.38;4933547;29;20047;-85
2023/03/23 07:32:37;;;;;;;14.43;5.50;;;;;;;10.45;100.00;100042.16;4927077;29;20040;-85
2023/03/23 07:35:03;;;;;;;13.57;4.18;;;;;;;10.58;100.00;100045.34;4911990;29;20041;-85
2023/03/23 07:37:29;;;;;;;15.23;5.40;;;;;;;10.57;100.00;100043.78;4932221;29;20043;-85
2023/03/23 07:39:54;;;;;;;16.45;4.20;;;;;;;10.66;100.00;100041.38;4915648;29;20039;-86
2023/03/23 07:42:20;;;;;;;9.95;3.97;;;;;;;10.73;100.00;100051.75;4915726;29;20032;-86
2023/03/23 07:44:46;;;;;;;14.63;5.20;;;;;;;10.71;100.00;100068.97;4916561;29;20028;-85
2023/03/23 07:47:11;;;;;;;8.85;4.38;;;;;;;10.73;100.00;100062.97;4910356;29;20024;-85
2023/03/23 07:49:37;;;;;;;18.27;4.55;;;;;;;10.76;100.00;100068.56;4912215;29;20082;-86
2023/03/23 07:52:02;;;;;;;12.77;4.25;;;;;;;10.74;100.00;100067.38;4910860;29;20057;-85
2023/03/23 07:54:28;;;;;;;15.70;5.15;;;;;;;10.70;100.00;100064.56;4928030;29;20039;-85
2023/03/23 07:56:53;;;;;;;19.42;5.45;;;;;;;10.79;100.00;100078.16;4923412;29;20052;-85
2023/03/23 07:59:19;;;;;;;11.40;4.40;;;;;;;10.82;100.00;100082.19;4925881;29;20067;-86
2023/03/23 08:01:44;;;;;;;14.70;5.97;;;;;;;10.87;100.00;100081.78;4931012;29;20051;-86
2023/03/23 08:04:09;;;;;;;13.63;4.82;;;;;;;10.89;100.00;100091.38;4906816;29;20566;-84
2023/03/23 08:06:35;;;;;;;17.95;5.68;;;;;;;10.88;100.00;100097.34;4933327;29;20042;-85
2023/03/23 08:09:06;;;;;;;14.40;5.53;;;;;;;10.87;100.00;100098.56;4932780;29;20041;-86
2023/03/23 08:11:33;;;;;;;15.68;5.95;;;;;;;10.93;100.00;100099.78;4930599;29;20111;-85
2023/03/23 08:13:58;;;;;;;19.50;6.25;;;;;;;10.86;100.00;100100.56;4913913;29;20478;-86
2023/03/23 08:16:25;;;;;;;12.07;4.82;;;;;;;10.88;100.00;100100.16;4910307;29;20118;-87
2023/03/23 08:18:50;;;;;;;18.92;5.88;;;;;;;10.91;100.00;100096.56;4913324;29;20032;-86
2023/03/23 08:21:17;;;;;;;14.70;5.80;;;;;;;10.89;100.00;100076.56;4911078;29;20040;-85
2023/03/23 08:23:43;;;;;;;20.38;6.10;;;;;;;10.92;100.00;100096.19;4924296;29;20040;-83
2023/03/23 08:26:09;;;;;;;16.23;4.93;;;;;;;10.94;100.00;100102.19;4916412;29;20039;-84
2023/03/23 08:28:36;;;;;;;16.38;5.55;;;;;;;11.00;100.00;100088.56;4936628;29;20070;-85
2023/03/23 08:31:10;;;;;;;16.30;6.13;;;;;;;11.06;100.00;100109.38;4916261;29;20126;-85
2023/03/23 08:33:36;;;;;;;22.90;5.85;;;;;;;11.07;100.00;100099.78;4927431;29;20031;-85
2023/03/23 08:36:02;;;;;;;32.30;6.65;;;;;;;11.10;100.00;100112.97;4928667;29;20032;-86
2023/03/23 08:38:29;;;;;;;15.00;5.40;;;;;;;11.13;100.00;100103.78;4930211;29;20517;-84
2023/03/23 08:41:00;;;;;;;19.90;5.70;;;;;;;11.12;100.00;100090.97;4926690;29;20493;-84
2023/03/23 08:43:25;;;;;;;12.48;4.70;;;;;;;11.11;100.00;100108.16;4929842;29;20039;-84
2023/03/23 08:45:51;;;;;;;16.50;5.45;;;;;;;11.27;100.00;100124.56;4923151;29;20035;-84
2023/03/23 08:48:17;;;;;;;26.05;5.78;;;;;;;11.26;100.00;100131.38;4910087;29;20089;-84
2023/03/23 08:50:43;;;;;;;13.77;4.38;;;;;;;11.21;100.00;100120.56;4928755;29;20398;-84
2023/03/23 08:53:09;;;;;;;14.40;4.72;;;;;;;11.22;100.00;100125.78;4922842;29;20051;-85
2023/03/23 08:55:34;;;;;;;11.18;3.85;;;;;;;11.17;100.00;100126.16;4913860;29;20039;-85
2023/03/23 08:58:00;;;;;;;19.13;4.15;;;;;;;11.16;100.00;100142.19;4935207;29;20046;-85
2023/03/23 09:00:27;;;;;;;14.38;5.85;;;;;;;11.24;100.00;100139.41;4920071;29;20034;-85
2023/03/23 09:02:53;;;;;;;11.38;3.92;;;;;;;11.20;100.00;100125.38;4930126;29;20036;-87
2023/03/23 09:05:22;;;;;;;14.60;4.07;;;;;;;11.23;100.00;100135.78;4916356;29;20032;-86
2023/03/23 09:07:51;;;;;;;9.65;4.13;;;;;;;11.25;100.00;100135.38;4933946;29;20036;-86
2023/03/23 09:10:17;;;;;;;15.48;4.15;;;;;;;11.23;100.00;100118.97;4915787;29;20126;-85
2023/03/23 09:12:44;;;;;;;16.42;5.65;;;;;;;11.29;100.00;100130.59;4930232;29;20028;-85
2023/03/23 09:15:13;;;;;;;12.25;4.28;;;;;;;11.37;100.00;100134.97;4928122;29;20070;-85
2023/03/23 09:17:44;;;;;;;11.20;4.32;;;;;;;11.33;100.00;100134.19;4929211;29;20068;-85
2023/03/23 09:20:11;;;;;;;10.98;4.07;;;;;;;11.37;100.00;100138.56;4921677;29;20055;-85
2023/03/23 09:22:45;;;;;;;11.43;4.05;;;;;;;11.22;100.00;100139.00;4930235;29;20047;-85
2023/03/23 09:25:13;;;;;;;10.07;4.18;;;;;;;11.27;100.00;100147.00;4930271;29;20499;-84
2023/03/23 09:27:40;;;;;;;12.07;3.50;;;;;;;11.21;100.00;100123.38;4930787;29;20031;-86
2023/03/23 09:30:10;;;;;;;10.60;3.67;;;;;;;11.33;100.00;100148.97;4928399;29;20082;-84
2023/03/23 09:32:37;;;;;;;15.00;3.42;;;;;;;11.40;100.00;100150.97;4922528;29;20122;-84
2023/03/23 09:35:09;;;;;;;13.43;3.92;;;;;;;11.43;100.00;100152.19;4926841;29;20024;-85
2023/03/23 09:37:36;;;;;;;10.18;3.53;;;;;;;11.42;100.00;100159.00;4925505;29;20103;-84
2023/03/23 09:40:03;;;;;;;9.90;3.28;;;;;;;11.41;100.00;100151.81;4917068;29;20035;-84
2023/03/23 09:43:12;;;;;;;13.02;3.72;;;;;;;11.41;100.00;100155.41;4910079;29;20116;-84
2023/03/23 09:46:17;;;;;;;12.48;3.00;;;;;;;11.54;100.00;100162.19;4926968;29;20134;-85
2023/03/23 09:48:54;;;;;;;9.05;3.28;;;;;;;11.45;100.00;100156.19;4922320;29;20067;-84
2023/03/23 09:51:44;;;;;;;7.60;3.38;;;;;;;11.52;100.00;100153.38;4902922;29;20035;-84
2023/03/23 09:54:17;;;;;;;11.07;2.80;;;;;;;11.60;100.00;100166.19;4921191;29;21062;-84
2023/03/23 09:56:44;;;;;;;8.00;3.67;;;;;;;11.55;100.00;100158.19;4921652;29;20118;-84
2023/03/23 09:59:24;;;;;;;11.07;3.60;;;;;;;11.79;100.00;100166.97;4910283;29;20486;-84
2023/03/23 10:01:59;;;;;;;12.70;3.47;;;;;;;12.03;100.00;100170.13;4926778;29;20067;-84
2023/03/23 10:04:38;;;;;;;8.82;2.88;;;;;;;11.78;100.00;100179.38;4924806;29;20575;-84
2023/03/23 10:07:13;;;;;;;8.43;3.08;;;;;;;11.76;100.00;100170.56;4921590;29;20510;-84
2023/03/23 10:09:41;;;;;;;11.35;4.03;;;;;;;11.76;100.00;100178.97;4930006;29;20078;-84
2023/03/23 10:12:40;;;;;;;14.25;3.08;;;;;;;11.72;100.00;100176.19;4909657;29;20027;-87
2023/03/23 10:15:26;;;;;;;11.70;3.60;;;;;;;11.69;100.00;100181.78;4927201;29;20039;-87
2023/03/23 10:18:03;;;;;;;13.90;3.50;;;;;;;11.68;100.00;100168.97;4911934;29;20520;-87
2023/03/23 10:20:46;;;;;;;7.63;2.50;;;;;;;11.78;100.00;100170.94;4932147;29;20027;-87
2023/03/23 10:23:18;;;;;;;13.02;3.17;;;;;;;11.85;100.00;100182.16;4933699;29;20066;-87
2023/03/23 10:25:51;;;;;;;9.80;2.88;;;;;;;11.86;100.00;100183.75;4922658;29;20050;-86
2023/03/23 10:28:24;;;;;;;12.40;3.50;;;;;;;11.84;100.00;100174.94;4909378;29;20028;-87
2023/03/23 10:30:53;;;;;;;;;;;;;;;11.91;100.00;100190.97;4912258;29;20119;-87
2023/03/23 10:33:25;;;;;;;12.95;3.63;;;;;;;12.22;100.00;100194.91;4926287;29;19919;-86
2023/03/23 10:36:00;;;;;;;12.35;3.42;;;;;;;12.32;100.00;100185.66;4907876;29;20402;-86
2023/03/23 10:38:38;;;;;;;9.82;3.60;;;;;;;12.30;100.00;100185.25;4912596;29;20087;-86
2023/03/23 10:41:14;;;;;;;13.00;3.47;;;;;;;12.04;100.00;100168.91;4929201;29;20090;-87
2023/03/23 10:43:41;;;;;;;13.45;3.47;;;;;;;12.05;100.00;100202.16;4925091;29;20460;-86
2023/03/23 10:46:29;;;;;;;9.93;3.30;;;;;;;11.95;100.00;100198.22;4906389;29;20473;-88
2023/03/23 10:48:58;;;;;;;17.80;3.67;;;;;;;12.05;100.00;100190.16;4918727;29;20533;-88
2023/03/23 10:51:36;;;;;;;11.23;3.13;;;;;;;12.20;100.00;100197.31;4921750;29;20055;-87
2023/03/23 10:54:04;;;;;;;19.95;3.90;;;;;;;12.32;100.00;100188.47;4927374;29;20394;-87
2023/03/23 10:56:48;;;;;;;5.13;2.80;;;;;;;12.22;100.00;100203.31;4917042;29;20028;-87
2023/03/23 10:59:29;;;;;;;12.32;3.60;;;;;;;12.23;100.00;100201.31;4917807;29;20028;-88
2023/03/23 11:01:57;;;;;;;11.13;3.38;;;;;;;12.13;100.00;100197.34;4930985;29;20068;-88
2023/03/23 11:04:23;;;;;;;16.38;4.00;;;;;;;12.03;100.00;100195.38;4917725;29;20401;-86
2023/03/23 11:06:57;;;;;;;12.25;3.00;;;;;;;12.21;100.00;100198.94;4915016;29;20060;-85
2023/03/23 11:09:37;;;;;;;8.48;3.53;;;;;;;12.47;100.00;100216.47;4911931;29;20091;-87
2023/03/23 11:12:03;;;;;;;14.35;3.97;;;;;;;12.51;100.00;100194.81;4931265;29;20038;-87
2023/03/23 11:14:32;;;;;;;12.13;3.72;;;;;;;12.59;100.00;100207.59;4908518;29;20036;-87
2023/03/23 11:17:06;;;;;;;14.95;3.78;;;;;;;12.72;100.00;100207.94;4908500;29;20419;-87
2023/03/23 11:19:35;;;;;;;24.75;4.38;;;;;;;12.55;100.00;100207.63;4929162;29;20087;-87
2023/03/23 11:22:07;;;;;;;19.35;4.53;;;;;;;12.52;100.00;100213.25;4909510;29;20055;-87
2023/03/23 11:24:36;;;;;;;11.80;4.18;;;;;;;12.66;100.00;100213.19;4909508;29;20558;-87
2023/03/23 11:27:06;;;;;;;16.27;4.10;;;;;;;12.78;100.00;100215.53;4912042;29;20119;-87